createdAt,value
2022-12-23T00:03:59.580Z,26.93
2022-12-23T00:09:02.106Z,24.10
2022-12-23T00:14:23.216Z,21.43
2022-12-23T00:19:25.656Z,22.43
2022-12-23T00:24:28.055Z,27.50
2022-12-23T00:29:30.462Z,25.67
2022-12-23T00:34:32.887Z,26.47
2022-12-23T00:39:55.200Z,23.20
2022-12-23T00:45:15.820Z,23.13
2022-12-23T00:50:18.378Z,22.20
2022-12-23T00:55:23.653Z,22.23
2022-12-23T01:00:44.837Z,21.97
2022-12-23T01:05:47.257Z,21.17
2022-12-23T01:10:49.705Z,18.50
2022-12-23T01:15:52.101Z,20.20
2022-12-23T01:20:54.524Z,18.57
2022-12-23T01:26:02.274Z,33.83
2022-12-23T01:31:06.018Z,40.70
2022-12-23T01:36:09.478Z,36.60
2022-12-23T01:41:37.399Z,38.50
2022-12-23T01:46:39.783Z,32.23
2022-12-23T01:51:42.348Z,44.53
2022-12-23T01:56:44.889Z,31.60
2022-12-23T02:02:05.996Z,27.90
2022-12-23T02:07:26.913Z,22.40
2022-12-23T02:12:43.928Z,20.17
2022-12-23T02:17:52.130Z,31.10
2022-12-23T02:23:14.743Z,29.30
2022-12-23T02:28:32.078Z,22.77
2022-12-23T02:33:49.477Z,20.37
2022-12-23T02:39:00.271Z,21.17
2022-12-23T02:44:16.936Z,18.97
2022-12-23T02:49:28.747Z,17.67
2022-12-23T02:54:40.356Z,20.87
2022-12-23T02:59:47.171Z,19.60
2022-12-23T03:04:49.848Z,20.90
2022-12-23T03:10:08.728Z,19.97
2022-12-23T03:15:29.147Z,20.70
2022-12-23T03:20:52.092Z,27.83
2022-12-23T03:25:59.424Z,24.10
2022-12-23T03:31:03.583Z,22.10
2022-12-23T03:36:11.369Z,23.50
2022-12-23T03:41:18.939Z,24.60
2022-12-23T03:46:34.656Z,23.43
2022-12-23T03:51:45.313Z,23.70
2022-12-23T03:56:54.716Z,27.43
2022-12-23T04:02:18.259Z,25.80
2022-12-23T04:07:58.467Z,23.40
2022-12-23T04:13:01.015Z,23.27
2022-12-23T04:18:03.490Z,34.67
2022-12-23T04:23:05.895Z,37.73
2022-12-23T04:28:08.357Z,26.93
2022-12-23T04:33:12.204Z,24.73
2022-12-23T04:38:14.584Z,23.93
2022-12-23T04:43:16.987Z,23.13
2022-12-23T04:48:20.205Z,23.07
2022-12-23T04:53:22.680Z,26.00
2022-12-23T04:58:25.272Z,29.43
2022-12-23T05:03:27.745Z,27.87
2022-12-23T05:08:30.381Z,23.00
2022-12-23T05:13:32.825Z,32.53
2022-12-23T05:18:35.256Z,40.83
2022-12-23T05:23:38.222Z,38.57
2022-12-23T05:28:40.681Z,48.07
2022-12-23T05:33:43.755Z,46.47
2022-12-23T05:38:46.275Z,31.90
2022-12-23T05:43:48.750Z,27.67
2022-12-23T05:48:51.477Z,26.53
2022-12-23T05:53:53.920Z,23.17
2022-12-23T05:58:56.283Z,43.73
2022-12-23T06:03:58.782Z,27.80
2022-12-23T06:09:01.286Z,30.33
2022-12-23T06:14:03.866Z,29.60
2022-12-23T06:19:08.814Z,51.00
2022-12-23T06:24:11.391Z,45.43
2022-12-23T06:29:13.962Z,86.90
2022-12-23T06:34:16.460Z,129.63
2022-12-23T06:39:18.977Z,58.87
2022-12-23T06:44:21.478Z,56.47
2022-12-23T06:49:24.388Z,53.43
2022-12-23T06:54:26.967Z,47.80
2022-12-23T06:59:30.036Z,39.27
2022-12-23T07:04:32.502Z,36.20
2022-12-23T07:09:34.909Z,32.27
2022-12-23T07:14:37.400Z,39.63
2022-12-23T07:19:41.759Z,35.47
2022-12-23T07:24:44.193Z,31.63
2022-12-23T07:29:46.618Z,29.37
2022-12-23T07:34:49.068Z,25.43
2022-12-23T07:39:51.548Z,25.00
2022-12-23T07:44:54.002Z,42.10
2022-12-23T07:49:56.635Z,34.70
2022-12-23T07:54:59.103Z,32.37
2022-12-23T08:00:01.668Z,33.57
2022-12-23T08:05:04.509Z,34.50
2022-12-23T08:10:07.820Z,30.37
2022-12-23T08:15:10.516Z,31.93
2022-12-23T08:20:13.230Z,27.63
2022-12-23T08:25:15.679Z,26.30
2022-12-23T08:30:18.233Z,29.03
2022-12-23T08:35:20.672Z,31.73
2022-12-23T08:40:23.155Z,30.47
2022-12-23T08:45:26.011Z,29.40
2022-12-23T08:50:29.079Z,49.13
2022-12-23T08:55:31.637Z,88.07
2022-12-23T09:00:35.559Z,37.27
2022-12-23T09:05:42.235Z,47.23
2022-12-23T09:10:45.116Z,50.63
2022-12-23T09:15:47.593Z,61.03
2022-12-23T09:20:50.048Z,60.80
2022-12-23T09:25:52.876Z,61.70
2022-12-23T09:30:57.172Z,61.73
2022-12-23T09:36:04.314Z,57.80
2022-12-23T09:41:29.699Z,52.67
2022-12-23T09:46:34.212Z,42.93
2022-12-23T09:51:37.347Z,61.13
2022-12-23T09:56:57.528Z,47.07
2022-12-23T10:02:24.093Z,55.70
2022-12-23T10:07:37.533Z,39.77
2022-12-23T10:12:43.761Z,46.87
2022-12-23T10:17:48.683Z,42.27
2022-12-23T10:22:51.891Z,43.97
2022-12-23T10:27:54.553Z,42.03
2022-12-23T10:33:22.566Z,39.50
2022-12-23T10:38:29.220Z,37.63
2022-12-23T10:43:58.220Z,42.23
2022-12-23T10:49:04.106Z,41.60
2022-12-23T10:54:12.207Z,34.00
2022-12-23T10:59:25.555Z,34.20
2022-12-23T11:04:36.847Z,34.87
2022-12-23T11:09:43.656Z,33.53
2022-12-23T11:14:54.599Z,32.33
2022-12-23T11:20:15.344Z,33.63
2022-12-23T11:25:40.855Z,47.93
2022-12-23T11:31:09.515Z,37.47
2022-12-23T11:36:27.096Z,48.57
2022-12-23T11:41:36.251Z,36.83
2022-12-23T11:46:38.859Z,31.97
2022-12-23T11:51:42.552Z,27.17
2022-12-23T11:56:52.000Z,25.93
2022-12-23T12:01:56.992Z,18.00
2022-12-23T12:07:00.746Z,18.27
2022-12-23T12:12:07.259Z,36.57
2022-12-23T12:17:36.310Z,55.47
2022-12-23T12:22:51.933Z,114.93
2022-12-23T12:28:01.656Z,48.80
2022-12-23T12:33:22.972Z,86.70
2022-12-23T12:38:30.019Z,40.73
2022-12-23T12:43:37.957Z,108.97
2022-12-23T12:48:55.653Z,48.80
2022-12-23T12:54:11.523Z,44.77
2022-12-23T12:59:20.604Z,47.67
2022-12-23T13:04:31.233Z,52.93
2022-12-23T13:09:36.477Z,49.13
2022-12-23T13:15:05.658Z,48.47
2022-12-23T13:20:17.688Z,46.27
2022-12-23T13:25:31.180Z,65.23
2022-12-23T13:30:42.596Z,36.63
2022-12-23T13:35:47.821Z,24.23
2022-12-23T13:41:02.344Z,35.23
2022-12-23T13:46:18.139Z,44.30
2022-12-23T13:51:46.525Z,34.03
2022-12-23T13:57:01.435Z,35.33
2022-12-23T14:02:03.993Z,35.20
2022-12-23T14:07:23.109Z,22.13
2022-12-23T14:12:31.323Z,29.23
2022-12-23T14:18:04.869Z,28.90
2022-12-23T14:23:42.754Z,26.67
2022-12-23T14:29:00.912Z,30.03
2022-12-23T14:34:24.735Z,25.70
2022-12-23T14:39:34.223Z,28.60
2022-12-23T14:44:36.889Z,78.07
2022-12-23T14:49:44.213Z,108.73
2022-12-23T14:55:00.355Z,65.73
2022-12-23T15:00:10.696Z,37.83
2022-12-23T15:05:13.435Z,54.07
2022-12-23T15:10:16.985Z,73.00
2022-12-23T15:15:22.852Z,65.93
2022-12-23T15:20:25.714Z,43.00
2022-12-23T15:25:34.152Z,33.90
2022-12-23T15:30:45.983Z,27.90
2022-12-23T15:35:49.227Z,31.70
2022-12-23T15:41:00.811Z,34.90
2022-12-23T15:46:20.852Z,36.37
2022-12-23T15:52:05.619Z,41.77
2022-12-23T15:57:00.347Z,36.03
2022-12-23T16:02:58.931Z,47.63
2022-12-23T16:07:46.931Z,48.73
2022-12-23T16:12:51.444Z,38.33
2022-12-23T16:18:20.365Z,79.87
2022-12-23T16:23:24.287Z,49.30
2022-12-23T16:28:32.312Z,111.67
2022-12-23T16:33:40.577Z,106.70
2022-12-23T16:38:43.032Z,87.27
2022-12-23T16:43:52.149Z,80.10
2022-12-23T16:49:00.431Z,81.13
2022-12-23T16:54:02.840Z,62.73
2022-12-23T16:59:05.451Z,53.53
2022-12-23T17:04:08.230Z,93.70
2022-12-23T17:09:11.353Z,114.37
2022-12-23T17:14:19.883Z,97.63
2022-12-23T17:19:28.400Z,80.00
2022-12-23T17:24:32.032Z,86.90
2022-12-23T17:29:34.394Z,74.83
2022-12-23T17:34:36.906Z,68.73
2022-12-23T17:39:39.347Z,75.90
2022-12-23T17:44:41.886Z,90.57
2022-12-23T17:49:45.042Z,80.73
2022-12-23T17:54:49.219Z,85.87
2022-12-23T17:59:53.753Z,86.03
2022-12-23T18:04:56.717Z,108.27
2022-12-23T18:09:59.092Z,147.47
2022-12-23T18:15:02.429Z,176.87
2022-12-23T18:20:05.379Z,120.47
2022-12-23T18:25:17.022Z,125.80
2022-12-23T18:30:21.334Z,126.03
2022-12-23T18:35:33.001Z,118.50
2022-12-23T18:40:35.419Z,120.13
2022-12-23T18:45:41.711Z,139.00
2022-12-23T18:50:44.506Z,129.57
2022-12-23T18:55:46.907Z,133.03
2022-12-23T19:00:50.778Z,115.93
2022-12-23T19:05:55.083Z,123.37
2022-12-23T19:10:57.680Z,183.83
2022-12-23T19:16:00.164Z,164.33
2022-12-23T19:21:06.294Z,167.17
2022-12-23T19:26:09.942Z,212.80
2022-12-23T19:31:14.270Z,205.63
2022-12-23T19:36:25.052Z,153.67
2022-12-23T19:41:27.547Z,145.87
2022-12-23T19:46:30.206Z,135.73
2022-12-23T19:51:32.769Z,198.73
2022-12-23T19:56:35.420Z,154.70
2022-12-23T20:01:37.960Z,131.07
2022-12-23T20:06:41.522Z,138.30
2022-12-23T20:11:46.265Z,141.77
2022-12-23T20:16:49.183Z,171.10
2022-12-23T20:21:52.148Z,195.63
2022-12-23T20:26:54.704Z,176.17
2022-12-23T20:31:57.200Z,193.07
2022-12-23T20:36:59.602Z,193.10
2022-12-23T20:42:02.119Z,216.80
2022-12-23T20:47:06.123Z,198.93
2022-12-23T20:52:08.780Z,219.20
2022-12-23T20:57:11.139Z,197.67
2022-12-23T21:02:14.386Z,199.17
2022-12-23T21:07:17.393Z,229.10
2022-12-23T21:12:19.839Z,160.37
2022-12-23T21:17:23.894Z,163.50
2022-12-23T21:22:26.522Z,163.83
2022-12-23T21:27:29.017Z,135.47
2022-12-23T21:32:32.025Z,123.47
2022-12-23T21:37:34.395Z,102.07
2022-12-23T21:42:36.798Z,92.87
2022-12-23T21:47:39.775Z,84.77
2022-12-23T21:52:42.177Z,91.07
2022-12-23T21:57:44.906Z,86.10
2022-12-23T22:02:47.300Z,84.00
2022-12-23T22:07:50.022Z,63.07
2022-12-23T22:12:52.414Z,53.47
2022-12-23T22:17:54.807Z,53.07
2022-12-23T22:22:57.241Z,49.10
2022-12-23T22:27:59.706Z,52.30
2022-12-23T22:33:02.338Z,60.30
2022-12-23T22:38:04.805Z,54.53
2022-12-23T22:43:07.224Z,72.70
2022-12-23T22:48:09.779Z,62.30
2022-12-23T22:53:14.606Z,53.20
2022-12-23T22:58:16.982Z,50.57
2022-12-23T23:03:19.890Z,46.27
2022-12-23T23:08:22.502Z,51.33
2022-12-23T23:13:30.493Z,45.10
2022-12-23T23:18:32.939Z,51.43
2022-12-23T23:23:35.901Z,50.10
2022-12-23T23:28:39.463Z,47.97
2022-12-23T23:33:41.902Z,42.87
2022-12-23T23:38:44.303Z,39.60
2022-12-23T23:43:46.635Z,38.87
2022-12-23T23:48:49.062Z,33.07
2022-12-23T23:53:51.553Z,36.83
2022-12-23T23:58:54.291Z,33.30
